sensor_id;sensor_type;location;lat;lon;timestamp;pressure;altitude;pressure_sealevel;temperature;humidity
19108;BME280;9686;48.832;9.126;2024-02-26T00:01:14;96303.59;;;9.23;100.00
19108;BME280;9686;48.832;9.126;2024-02-26T00:03:40;96295.59;;;9.30;100.00
19108;BME280;9686;48.832;9.126;2024-02-26T00:06:07;96300.56;;;9.37;100.00
19108;BME280;9686;48.832;9.126;2024-02-26T00:08:32;96303.06;;;9.40;100.00
19108;BME280;9686;48.832;9.126;2024-02-26T00:10:57;96291.94;;;9.35;100.00
19108;BME280;9686;48.832;9.126;2024-02-26T00:13:23;96294.28;;;9.16;100.00
19108;BME280;9686;48.832;9.126;2024-02-26T00:15:48;96290.44;;;9.28;100.00
19108;BME280;9686;48.832;9.126;2024-02-26T00:18:13;96288.69;;;9.28;100.00
19108;BME280;9686;48.832;9.126;2024-02-26T00:20:39;96282.16;;;9.17;100.00
19108;BME280;9686;48.832;9.126;2024-02-26T00:23:05;96283.34;;;9.33;100.00
19108;BME280;9686;48.832;9.126;2024-02-26T00:25:30;96281.03;;;9.24;100.00
19108;BME280;9686;48.832;9.126;2024-02-26T00:27:55;96284.34;;;9.29;100.00
19108;BME280;9686;48.832;9.126;2024-02-26T00:30:21;96284.16;;;9.07;100.00
19108;BME280;9686;48.832;9.126;2024-02-26T00:32:47;96283.78;;;9.19;100.00
19108;BME280;9686;48.832;9.126;2024-02-26T00:35:13;96282.00;;;9.21;100.00
19108;BME280;9686;48.832;9.126;2024-02-26T00:37:39;96279.03;;;9.32;100.00
19108;BME280;9686;48.832;9.126;2024-02-26T00:40:05;96280.41;;;9.17;100.00
19108;BME280;9686;48.832;9.126;2024-02-26T00:42:31;96282.69;;;9.26;100.00
19108;BME280;9686;48.832;9.126;2024-02-26T00:44:56;96274.63;;;9.34;100.00
19108;BME280;9686;48.832;9.126;2024-02-26T00:47:22;96281.59;;;9.34;100.00
19108;BME280;9686;48.832;9.126;2024-02-26T00:49:47;96274.50;;;9.39;100.00
19108;BME280;9686;48.832;9.126;2024-02-26T00:52:12;96276.91;;;9.45;100.00
19108;BME280;9686;48.832;9.126;2024-02-26T00:54:38;96279.94;;;9.57;100.00
19108;BME280;9686;48.832;9.126;2024-02-26T00:57:03;96290.28;;;9.59;100.00
19108;BME280;9686;48.832;9.126;2024-02-26T00:59:28;96280.31;;;9.47;100.00
19108;BME280;9686;48.832;9.126;2024-02-26T01:01:53;96281.06;;;9.50;100.00
19108;BME280;9686;48.832;9.126;2024-02-26T01:04:19;96292.47;;;9.46;100.00
19108;BME280;9686;48.832;9.126;2024-02-26T01:06:44;96285.75;;;9.66;100.00
19108;BME280;9686;48.832;9.126;2024-02-26T01:09:09;96284.72;;;9.45;100.00
19108;BME280;9686;48.832;9.126;2024-02-26T01:11:35;96288.25;;;9.42;100.00
19108;BME280;9686;48.832;9.126;2024-02-26T01:14:00;96273.41;;;9.46;100.00
19108;BME280;9686;48.832;9.126;2024-02-26T01:16:25;96280.16;;;9.51;100.00
19108;BME280;9686;48.832;9.126;2024-02-26T01:18:51;96275.53;;;9.59;100.00
19108;BME280;9686;48.832;9.126;2024-02-26T01:21:16;96264.00;;;9.68;100.00
19108;BME280;9686;48.832;9.126;2024-02-26T01:23:41;96259.63;;;9.69;100.00
19108;BME280;9686;48.832;9.126;2024-02-26T01:26:07;96281.31;;;9.43;100.00
19108;BME280;9686;48.832;9.126;2024-02-26T01:28:32;96251.81;;;9.44;100.00
19108;BME280;9686;48.832;9.126;2024-02-26T01:30:58;96261.69;;;9.59;100.00
19108;BME280;9686;48.832;9.126;2024-02-26T01:33:26;96261.69;;;9.59;100.00
19108;BME280;9686;48.832;9.126;2024-02-26T01:35:51;96257.66;;;9.50;100.00
19108;BME280;9686;48.832;9.126;2024-02-26T01:38:16;96273.09;;;9.55;100.00
19108;BME280;9686;48.832;9.126;2024-02-26T01:40:42;96270.50;;;9.55;100.00
19108;BME280;9686;48.832;9.126;2024-02-26T01:43:07;96280.09;;;9.53;100.00
19108;BME280;9686;48.832;9.126;2024-02-26T01:45:32;96279.13;;;9.55;100.00
19108;BME280;9686;48.832;9.126;2024-02-26T01:47:58;96291.25;;;9.56;100.00
19108;BME280;9686;48.832;9.126;2024-02-26T01:50:23;96311.94;;;9.59;100.00
19108;BME280;9686;48.832;9.126;2024-02-26T01:52:50;96312.66;;;9.65;100.00
19108;BME280;9686;48.832;9.126;2024-02-26T01:55:17;96313.66;;;9.61;100.00
19108;BME280;9686;48.832;9.126;2024-02-26T01:57:44;96316.19;;;9.64;100.00
19108;BME280;9686;48.832;9.126;2024-02-26T02:00:11;96320.66;;;9.58;100.00
19108;BME280;9686;48.832;9.126;2024-02-26T02:02:38;96319.63;;;9.64;100.00
19108;BME280;9686;48.832;9.126;2024-02-26T02:05:04;96316.06;;;9.67;100.00
19108;BME280;9686;48.832;9.126;2024-02-26T02:07:31;96323.03;;;9.66;100.00
19108;BME280;9686;48.832;9.126;2024-02-26T02:09:57;96322.25;;;9.63;100.00
19108;BME280;9686;48.832;9.126;2024-02-26T02:12:22;96323.94;;;9.65;100.00
19108;BME280;9686;48.832;9.126;2024-02-26T02:14:47;96329.13;;;9.65;100.00
19108;BME280;9686;48.832;9.126;2024-02-26T02:17:12;96312.91;;;9.57;100.00
19108;BME280;9686;48.832;9.126;2024-02-26T02:19:38;96324.81;;;9.64;100.00
19108;BME280;9686;48.832;9.126;2024-02-26T02:22:03;96330.56;;;9.74;100.00
19108;BME280;9686;48.832;9.126;2024-02-26T02:24:29;96328.22;;;9.66;100.00
19108;BME280;9686;48.832;9.126;2024-02-26T02:26:55;96330.31;;;9.55;100.00
19108;BME280;9686;48.832;9.126;2024-02-26T02:29:20;96337.91;;;9.61;100.00
19108;BME280;9686;48.832;9.126;2024-02-26T02:31:46;96335.25;;;9.63;100.00
19108;BME280;9686;48.832;9.126;2024-02-26T02:34:12;96332.69;;;9.61;100.00
19108;BME280;9686;48.832;9.126;2024-02-26T02:36:52;96331.16;;;9.55;100.00
19108;BME280;9686;48.832;9.126;2024-02-26T02:39:18;96327.13;;;9.47;100.00
19108;BME280;9686;48.832;9.126;2024-02-26T02:41:44;96339.22;;;9.48;100.00
19108;BME280;9686;48.832;9.126;2024-02-26T02:44:09;96339.00;;;9.54;100.00
19108;BME280;9686;48.832;9.126;2024-02-26T02:46:35;96316.16;;;9.37;100.00
19108;BME280;9686;48.832;9.126;2024-02-26T02:49:00;96318.56;;;9.43;100.00
19108;BME280;9686;48.832;9.126;2024-02-26T02:51:26;96316.19;;;9.62;100.00
19108;BME280;9686;48.832;9.126;2024-02-26T02:53:51;96313.84;;;9.54;100.00
19108;BME280;9686;48.832;9.126;2024-02-26T02:56:16;96323.41;;;9.54;100.00
19108;BME280;9686;48.832;9.126;2024-02-26T02:58:41;96329.31;;;9.59;100.00
19108;BME280;9686;48.832;9.126;2024-02-26T03:01:07;96337.22;;;9.56;100.00
19108;BME280;9686;48.832;9.126;2024-02-26T03:03:32;96333.06;;;9.77;100.00
19108;BME280;9686;48.832;9.126;2024-02-26T03:05:58;96327.56;;;9.59;100.00
19108;BME280;9686;48.832;9.126;2024-02-26T03:08:23;96327.22;;;9.70;100.00
19108;BME280;9686;48.832;9.126;2024-02-26T03:10:51;96338.81;;;9.60;100.00
19108;BME280;9686;48.832;9.126;2024-02-26T03:13:16;96341.47;;;9.58;100.00
19108;BME280;9686;48.832;9.126;2024-02-26T03:15:41;96330.72;;;9.69;100.00
19108;BME280;9686;48.832;9.126;2024-02-26T03:18:07;96320.09;;;9.49;100.00
19108;BME280;9686;48.832;9.126;2024-02-26T03:20:32;96331.91;;;9.59;100.00
19108;BME280;9686;48.832;9.126;2024-02-26T03:22:58;96324.91;;;9.61;100.00
19108;BME280;9686;48.832;9.126;2024-02-26T03:25:23;96322.22;;;9.64;100.00
19108;BME280;9686;48.832;9.126;2024-02-26T03:27:48;96323.81;;;9.68;100.00
19108;BME280;9686;48.832;9.126;2024-02-26T03:30:14;96328.66;;;9.52;100.00
19108;BME280;9686;48.832;9.126;2024-02-26T03:32:39;96326.97;;;9.51;100.00
19108;BME280;9686;48.832;9.126;2024-02-26T03:35:04;96320.53;;;9.63;100.00
19108;BME280;9686;48.832;9.126;2024-02-26T03:37:30;96318.94;;;9.57;100.00
19108;BME280;9686;48.832;9.126;2024-02-26T03:39:55;96323.34;;;9.55;100.00
19108;BME280;9686;48.832;9.126;2024-02-26T03:42:22;96322.34;;;9.59;100.00
19108;BME280;9686;48.832;9.126;2024-02-26T03:44:47;96294.38;;;9.41;100.00
19108;BME280;9686;48.832;9.126;2024-02-26T03:47:12;96279.75;;;9.37;100.00
19108;BME280;9686;48.832;9.126;2024-02-26T03:49:38;96269.81;;;9.50;100.00
19108;BME280;9686;48.832;9.126;2024-02-26T03:52:03;96284.28;;;9.31;100.00
19108;BME280;9686;48.832;9.126;2024-02-26T03:54:29;96285.13;;;9.31;100.00
19108;BME280;9686;48.832;9.126;2024-02-26T03:56:54;96291.13;;;9.33;100.00
19108;BME280;9686;48.832;9.126;2024-02-26T03:59:19;96279.63;;;9.42;100.00
19108;BME280;9686;48.832;9.126;2024-02-26T04:01:46;96280.56;;;9.39;100.00
19108;BME280;9686;48.832;9.126;2024-02-26T04:04:12;96273.84;;;9.32;100.00
19108;BME280;9686;48.832;9.126;2024-02-26T04:06:37;96293.25;;;9.22;100.00
19108;BME280;9686;48.832;9.126;2024-02-26T04:09:03;96291.03;;;9.36;100.00
19108;BME280;9686;48.832;9.126;2024-02-26T04:11:29;96301.75;;;9.27;100.00
19108;BME280;9686;48.832;9.126;2024-02-26T04:13:54;96291.94;;;9.35;100.00
19108;BME280;9686;48.832;9.126;2024-02-26T04:16:19;96287.56;;;9.37;100.00
19108;BME280;9686;48.832;9.126;2024-02-26T04:18:45;96286.19;;;9.25;100.00
19108;BME280;9686;48.832;9.126;2024-02-26T04:21:10;96270.34;;;9.33;100.00
19108;BME280;9686;48.832;9.126;2024-02-26T04:23:35;96268.47;;;9.38;100.00
19108;BME280;9686;48.832;9.126;2024-02-26T04:26:01;96266.09;;;9.31;100.00
19108;BME280;9686;48.832;9.126;2024-02-26T04:28:26;96264.53;;;9.25;100.00
19108;BME280;9686;48.832;9.126;2024-02-26T04:30:54;96267.25;;;9.22;100.00
19108;BME280;9686;48.832;9.126;2024-02-26T04:33:19;96269.16;;;9.17;100.00
19108;BME280;9686;48.832;9.126;2024-02-26T04:35:44;96268.25;;;9.18;100.00
19108;BME280;9686;48.832;9.126;2024-02-26T04:38:10;96280.03;;;9.28;100.00
19108;BME280;9686;48.832;9.126;2024-02-26T04:40:35;96289.38;;;9.34;100.00
19108;BME280;9686;48.832;9.126;2024-02-26T04:43:01;96304.13;;;9.33;100.00
19108;BME280;9686;48.832;9.126;2024-02-26T04:45:26;96297.25;;;9.32;100.00
19108;BME280;9686;48.832;9.126;2024-02-26T04:47:51;96302.78;;;9.21;100.00
19108;BME280;9686;48.832;9.126;2024-02-26T04:50:16;96297.19;;;9.34;100.00
19108;BME280;9686;48.832;9.126;2024-02-26T04:52:42;96302.63;;;9.26;100.00
19108;BME280;9686;48.832;9.126;2024-02-26T04:55:07;96289.16;;;9.41;100.00
19108;BME280;9686;48.832;9.126;2024-02-26T04:57:33;96292.09;;;9.31;100.00
19108;BME280;9686;48.832;9.126;2024-02-26T04:59:58;96286.47;;;9.44;100.00
19108;BME280;9686;48.832;9.126;2024-02-26T05:02:24;96282.31;;;9.39;100.00
19108;BME280;9686;48.832;9.126;2024-02-26T05:04:49;96294.75;;;9.29;100.00
19108;BME280;9686;48.832;9.126;2024-02-26T05:07:15;96292.88;;;9.33;100.00
19108;BME280;9686;48.832;9.126;2024-02-26T05:09:42;96288.38;;;9.39;100.00
19108;BME280;9686;48.832;9.126;2024-02-26T05:12:09;96301.59;;;9.32;100.00
19108;BME280;9686;48.832;9.126;2024-02-26T05:14:34;96294.53;;;9.35;100.00
19108;BME280;9686;48.832;9.126;2024-02-26T05:16:59;96292.72;;;9.39;100.00
19108;BME280;9686;48.832;9.126;2024-02-26T05:19:24;96297.75;;;9.43;100.00
19108;BME280;9686;48.832;9.126;2024-02-26T05:21:50;96310.97;;;9.37;100.00
19108;BME280;9686;48.832;9.126;2024-02-26T05:24:16;96304.88;;;9.37;100.00
19108;BME280;9686;48.832;9.126;2024-02-26T05:26:43;96308.50;;;9.33;100.00
19108;BME280;9686;48.832;9.126;2024-02-26T05:29:08;96316.19;;;9.36;100.00
19108;BME280;9686;48.832;9.126;2024-02-26T05:31:33;96313.59;;;9.36;100.00
19108;BME280;9686;48.832;9.126;2024-02-26T05:33:59;96314.63;;;9.30;100.00
19108;BME280;9686;48.832;9.126;2024-02-26T05:36:24;96311.66;;;9.42;100.00
19108;BME280;9686;48.832;9.126;2024-02-26T05:38:50;96329.81;;;9.44;100.00
19108;BME280;9686;48.832;9.126;2024-02-26T05:41:16;96340.22;;;9.44;100.00
19108;BME280;9686;48.832;9.126;2024-02-26T05:43:42;96348.22;;;9.38;100.00
19108;BME280;9686;48.832;9.126;2024-02-26T05:46:07;96356.94;;;9.35;100.00
19108;BME280;9686;48.832;9.126;2024-02-26T05:48:33;96351.38;;;9.47;100.00
19108;BME280;9686;48.832;9.126;2024-02-26T05:50:58;96360.03;;;9.48;100.00
19108;BME280;9686;48.832;9.126;2024-02-26T05:53:24;96360.72;;;9.53;100.00
19108;BME280;9686;48.832;9.126;2024-02-26T05:55:49;96362.81;;;9.42;100.00
19108;BME280;9686;48.832;9.126;2024-02-26T05:58:14;96365.13;;;9.51;100.00
19108;BME280;9686;48.832;9.126;2024-02-26T06:00:40;96363.97;;;9.32;100.00
19108;BME280;9686;48.832;9.126;2024-02-26T06:03:05;96363.09;;;9.33;100.00
19108;BME280;9686;48.832;9.126;2024-02-26T06:05:31;96377.94;;;9.29;100.00
19108;BME280;9686;48.832;9.126;2024-02-26T06:07:56;96371.69;;;9.35;100.00
19108;BME280;9686;48.832;9.126;2024-02-26T06:10:21;96355.59;;;9.23;100.00
19108;BME280;9686;48.832;9.126;2024-02-26T06:12:47;96353.69;;;9.28;100.00
19108;BME280;9686;48.832;9.126;2024-02-26T06:15:13;96351.94;;;9.29;100.00
19108;BME280;9686;48.832;9.126;2024-02-26T06:17:38;96368.63;;;9.22;100.00
19108;BME280;9686;48.832;9.126;2024-02-26T06:20:03;96362.78;;;9.15;100.00
19108;BME280;9686;48.832;9.126;2024-02-26T06:22:31;96367.72;;;9.23;100.00
19108;BME280;9686;48.832;9.126;2024-02-26T06:24:56;96363.31;;;9.25;100.00
19108;BME280;9686;48.832;9.126;2024-02-26T06:27:22;96375.91;;;9.09;100.00
19108;BME280;9686;48.832;9.126;2024-02-26T06:29:49;96378.84;;;8.99;100.00
19108;BME280;9686;48.832;9.126;2024-02-26T06:32:14;96368.78;;;9.17;100.00
19108;BME280;9686;48.832;9.126;2024-02-26T06:34:39;96376.66;;;9.14;100.00
19108;BME280;9686;48.832;9.126;2024-02-26T06:37:07;96370.88;;;9.05;100.00
19108;BME280;9686;48.832;9.126;2024-02-26T06:39:32;96378.84;;;8.99;100.00
19108;BME280;9686;48.832;9.126;2024-02-26T06:41:58;96375.44;;;8.96;100.00
19108;BME280;9686;48.832;9.126;2024-02-26T06:44:26;96378.03;;;8.96;100.00
19108;BME280;9686;48.832;9.126;2024-02-26T06:46:57;96378.00;;;8.98;100.00
19108;BME280;9686;48.832;9.126;2024-02-26T06:49:22;96386.75;;;8.95;100.00
19108;BME280;9686;48.832;9.126;2024-02-26T06:51:47;96394.97;;;9.10;100.00
19108;BME280;9686;48.832;9.126;2024-02-26T06:54:13;96396.59;;;9.14;100.00
19108;BME280;9686;48.832;9.126;2024-02-26T06:56:38;96401.19;;;9.34;100.00
19108;BME280;9686;48.832;9.126;2024-02-26T06:59:03;96401.03;;;9.40;100.00
19108;BME280;9686;48.832;9.126;2024-02-26T07:01:29;96396.72;;;9.39;100.00
19108;BME280;9686;48.832;9.126;2024-02-26T07:03:55;96414.38;;;9.27;100.00
19108;BME280;9686;48.832;9.126;2024-02-26T07:06:21;96417.69;;;9.33;100.00
19108;BME280;9686;48.832;9.126;2024-02-26T07:08:46;96412.44;;;9.34;100.00
19108;BME280;9686;48.832;9.126;2024-02-26T07:11:12;96427.09;;;9.37;100.00
19108;BME280;9686;48.832;9.126;2024-02-26T07:13:37;96426.13;;;9.41;100.00
19108;BME280;9686;48.832;9.126;2024-02-26T07:16:03;96414.81;;;9.42;100.00
19108;BME280;9686;48.832;9.126;2024-02-26T07:18:28;96435.44;;;9.48;100.00
19108;BME280;9686;48.832;9.126;2024-02-26T07:20:54;96435.16;;;9.57;100.00
19108;BME280;9686;48.832;9.126;2024-02-26T07:23:19;96434.19;;;9.59;100.00
19108;BME280;9686;48.832;9.126;2024-02-26T07:25:44;96438.44;;;9.62;100.00
19108;BME280;9686;48.832;9.126;2024-02-26T07:28:11;96430.44;;;9.70;100.00
19108;BME280;9686;48.832;9.126;2024-02-26T07:30:36;96436.28;;;9.76;100.00
19108;BME280;9686;48.832;9.126;2024-02-26T07:33:02;96443.28;;;9.74;100.00
19108;BME280;9686;48.832;9.126;2024-02-26T07:35:27;96428.69;;;9.70;100.00
19108;BME280;9686;48.832;9.126;2024-02-26T07:37:53;96435.47;;;9.74;100.00
19108;BME280;9686;48.832;9.126;2024-02-26T07:40:18;96431.03;;;9.78;100.00
19108;BME280;9686;48.832;9.126;2024-02-26T07:42:43;96434.63;;;9.74;100.00
19108;BME280;9686;48.832;9.126;2024-02-26T07:45:09;96436.38;;;9.73;100.00
19108;BME280;9686;48.832;9.126;2024-02-26T07:47:35;96446.75;;;9.75;100.00
19108;BME280;9686;48.832;9.126;2024-02-26T07:50:01;96438.72;;;9.81;100.00
19108;BME280;9686;48.832;9.126;2024-02-26T07:52:26;96442.63;;;9.96;100.00
19108;BME280;9686;48.832;9.126;2024-02-26T07:54:51;96445.91;;;10.01;100.00
19108;BME280;9686;48.832;9.126;2024-02-26T07:57:17;96449.97;;;10.09;100.00
19108;BME280;9686;48.832;9.126;2024-02-26T07:59:42;96444.00;;;10.06;100.00
19108;BME280;9686;48.832;9.126;2024-02-26T08:02:08;96446.47;;;10.10;100.00
19108;BME280;9686;48.832;9.126;2024-02-26T08:04:33;96448.78;;;10.19;100.00
19108;BME280;9686;48.832;9.126;2024-02-26T08:06:58;96445.09;;;10.27;100.00
19108;BME280;9686;48.832;9.126;2024-02-26T08:09:24;96446.97;;;10.23;100.00
19108;BME280;9686;48.832;9.126;2024-02-26T08:11:49;96442.28;;;10.33;100.00
19108;BME280;9686;48.832;9.126;2024-02-26T08:14:14;96441.38;;;10.34;100.00
19108;BME280;9686;48.832;9.126;2024-02-26T08:16:39;96441.31;;;10.35;100.00
19108;BME280;9686;48.832;9.126;2024-02-26T08:19:05;96430.28;;;10.29;100.00
19108;BME280;9686;48.832;9.126;2024-02-26T08:21:30;96430.75;;;10.40;100.00
19108;BME280;9686;48.832;9.126;2024-02-26T08:23:55;96429.81;;;10.42;100.00
19108;BME280;9686;48.832;9.126;2024-02-26T08:26:21;96433.31;;;10.41;100.00
19108;BME280;9686;48.832;9.126;2024-02-26T08:28:47;96434.97;;;10.44;100.00
19108;BME280;9686;48.832;9.126;2024-02-26T08:31:14;96433.13;;;10.47;100.00
19108;BME280;9686;48.832;9.126;2024-02-26T08:33:39;96435.22;;;10.61;100.00
19108;BME280;9686;48.832;9.126;2024-02-26T08:36:05;96438.44;;;10.69;100.00
19108;BME280;9686;48.832;9.126;2024-02-26T08:38:31;96437.53;;;10.70;100.00
19108;BME280;9686;48.832;9.126;2024-02-26T08:40:56;96441.44;;;10.82;100.00
19108;BME280;9686;48.832;9.126;2024-02-26T08:43:21;96442.97;;;10.88;100.00
19108;BME280;9686;48.832;9.126;2024-02-26T08:45:47;96452.44;;;10.90;100.00
19108;BME280;9686;48.832;9.126;2024-02-26T08:48:12;96453.19;;;10.94;100.00
19108;BME280;9686;48.832;9.126;2024-02-26T08:50:37;96454.28;;;11.11;100.00
19108;BME280;9686;48.832;9.126;2024-02-26T08:53:09;96453.19;;;11.17;100.00
19108;BME280;9686;48.832;9.126;2024-02-26T08:55:34;96455.59;;;11.23;100.00
19108;BME280;9686;48.832;9.126;2024-02-26T08:57:59;96453.44;;;11.34;100.00
19108;BME280;9686;48.832;9.126;2024-02-26T09:00:24;96454.34;;;11.33;100.00
19108;BME280;9686;48.832;9.126;2024-02-26T09:02:50;96455.25;;;11.32;100.00
19108;BME280;9686;48.832;9.126;2024-02-26T09:05:15;96458.47;;;11.39;100.00
19108;BME280;9686;48.832;9.126;2024-02-26T09:07:41;96463.31;;;11.50;99.62
19108;BME280;9686;48.832;9.126;2024-02-26T09:10:06;96458.34;;;11.42;100.00
19108;BME280;9686;48.832;9.126;2024-02-26T09:12:35;96464.16;;;11.50;100.00
19108;BME280;9686;48.832;9.126;2024-02-26T09:15:01;96471.69;;;11.58;100.00
19108;BME280;9686;48.832;9.126;2024-02-26T09:17:26;96464.22;;;11.49;100.00
19108;BME280;9686;48.832;9.126;2024-02-26T09:19:51;96468.94;;;11.61;97.52
19108;BME280;9686;48.832;9.126;2024-02-26T09:22:17;96465.09;;;11.71;97.01
19108;BME280;9686;48.832;9.126;2024-02-26T09:24:42;96461.31;;;11.80;95.95
19108;BME280;9686;48.832;9.126;2024-02-26T09:27:07;96453.09;;;11.89;96.25
19108;BME280;9686;48.832;9.126;2024-02-26T09:29:35;96451.13;;;11.72;96.81
19108;BME280;9686;48.832;9.126;2024-02-26T09:32:00;96455.38;;;11.74;97.82
19108;BME280;9686;48.832;9.126;2024-02-26T09:34:26;96460.72;;;11.71;100.00
19108;BME280;9686;48.832;9.126;2024-02-26T09:36:51;96453.91;;;11.67;100.00
19108;BME280;9686;48.832;9.126;2024-02-26T09:39:16;96457.31;;;11.69;100.00
19108;BME280;9686;48.832;9.126;2024-02-26T09:41:47;96458.63;;;11.81;100.00
19108;BME280;9686;48.832;9.126;2024-02-26T09:44:15;96467.38;;;11.80;100.00
19108;BME280;9686;48.832;9.126;2024-02-26T09:46:44;96474.66;;;11.94;100.00
19108;BME280;9686;48.832;9.126;2024-02-26T09:49:10;96461.13;;;12.06;100.00
19108;BME280;9686;48.832;9.126;2024-02-26T09:51:37;96457.84;;;12.01;100.00
19108;BME280;9686;48.832;9.126;2024-02-26T09:54:03;96463.00;;;12.24;100.00
19108;BME280;9686;48.832;9.126;2024-02-26T09:56:29;96465.84;;;12.18;100.00
19108;BME280;9686;48.832;9.126;2024-02-26T09:58:55;96464.00;;;12.42;100.00
19108;BME280;9686;48.832;9.126;2024-02-26T10:01:21;96468.66;;;12.56;100.00
19108;BME280;9686;48.832;9.126;2024-02-26T10:03:54;96481.75;;;12.76;100.00
19108;BME280;9686;48.832;9.126;2024-02-26T10:06:20;96474.63;;;12.80;100.00
19108;BME280;9686;48.832;9.126;2024-02-26T10:08:47;96473.44;;;12.87;100.00
19108;BME280;9686;48.832;9.126;2024-02-26T10:11:14;96479.63;;;12.84;100.00
19108;BME280;9686;48.832;9.126;2024-02-26T10:13:39;96483.03;;;12.86;98.77
19108;BME280;9686;48.832;9.126;2024-02-26T10:16:06;96487.16;;;12.92;97.26
19108;BME280;9686;48.832;9.126;2024-02-26T10:18:51;96481.13;;;13.10;97.90
19108;BME280;9686;48.832;9.126;2024-02-26T10:21:17;96488.19;;;13.08;91.87
19108;BME280;9686;48.832;9.126;2024-02-26T10:23:46;96482.56;;;13.17;91.02
19108;BME280;9686;48.832;9.126;2024-02-26T10:26:12;96482.50;;;13.19;89.77
19108;BME280;9686;48.832;9.126;2024-02-26T10:28:39;96478.69;;;13.26;83.33
19108;BME280;9686;48.832;9.126;2024-02-26T10:31:05;96478.94;;;13.40;84.76
19108;BME280;9686;48.832;9.126;2024-02-26T10:33:33;96483.13;;;13.44;82.76
19108;BME280;9686;48.832;9.126;2024-02-26T10:36:00;96481.78;;;13.36;78.78
19108;BME280;9686;48.832;9.126;2024-02-26T10:38:26;96487.84;;;13.36;83.70
19108;BME280;9686;48.832;9.126;2024-02-26T10:40:51;96488.00;;;13.33;83.45
19108;BME280;9686;48.832;9.126;2024-02-26T10:43:16;96483.91;;;13.46;81.44
19108;BME280;9686;48.832;9.126;2024-02-26T10:45:43;96479.59;;;13.64;81.70
19108;BME280;9686;48.832;9.126;2024-02-26T10:48:10;96475.28;;;13.63;79.42
19108;BME280;9686;48.832;9.126;2024-02-26T10:50:36;96476.69;;;13.70;81.31
19108;BME280;9686;48.832;9.126;2024-02-26T10:53:02;96479.59;;;13.83;79.81
19108;BME280;9686;48.832;9.126;2024-02-26T10:55:29;96492.47;;;13.87;81.10
19108;BME280;9686;48.832;9.126;2024-02-26T10:57:56;96492.31;;;14.09;76.21
19108;BME280;9686;48.832;9.126;2024-02-26T11:00:22;96491.19;;;13.96;74.87
19108;BME280;9686;48.832;9.126;2024-02-26T11:02:48;96487.56;;;14.17;75.76
19108;BME280;9686;48.832;9.126;2024-02-26T11:05:14;96488.66;;;14.31;74.22
19108;BME280;9686;48.832;9.126;2024-02-26T11:07:41;96495.97;;;14.24;72.81
19108;BME280;9686;48.832;9.126;2024-02-26T11:10:07;96495.47;;;14.35;72.97
19108;BME280;9686;48.832;9.126;2024-02-26T11:12:34;96499.13;;;14.31;72.02
19108;BME280;9686;48.832;9.126;2024-02-26T11:15:03;96503.94;;;14.40;66.81
19108;BME280;9686;48.832;9.126;2024-02-26T11:17:28;96501.25;;;14.41;66.09
19108;BME280;9686;48.832;9.126;2024-02-26T11:19:58;96494.47;;;14.37;62.68
19108;BME280;9686;48.832;9.126;2024-02-26T11:22:24;96492.34;;;14.27;66.80
19108;BME280;9686;48.832;9.126;2024-02-26T11:24:54;96489.72;;;14.27;62.69
19108;BME280;9686;48.832;9.126;2024-02-26T11:27:26;96488.44;;;14.35;63.38
19108;BME280;9686;48.832;9.126;2024-02-26T11:29:56;96492.13;;;14.31;63.21
19108;BME280;9686;48.832;9.126;2024-02-26T11:32:26;96495.13;;;14.24;66.10
19108;BME280;9686;48.832;9.126;2024-02-26T11:34:51;96492.88;;;14.16;63.95
19108;BME280;9686;48.832;9.126;2024-02-26T11:37:19;96487.78;;;14.30;63.52
19108;BME280;9686;48.832;9.126;2024-02-26T11:39:45;96501.63;;;14.34;65.51
19108;BME280;9686;48.832;9.126;2024-02-26T11:42:14;96502.44;;;14.53;63.03
19108;BME280;9686;48.832;9.126;2024-02-26T11:44:40;96496.06;;;14.59;62.44
19108;BME280;9686;48.832;9.126;2024-02-26T11:47:20;96488.19;;;14.93;64.30
19108;BME280;9686;48.832;9.126;2024-02-26T11:49:46;96497.03;;;15.08;62.59
19108;BME280;9686;48.832;9.126;2024-02-26T11:52:13;96497.75;;;15.45;59.96
19108;BME280;9686;48.832;9.126;2024-02-26T11:54:50;96492.53;;;15.93;58.72
19108;BME280;9686;48.832;9.126;2024-02-26T12:00:10;96499.13;;;16.62;55.51
19108;BME280;9686;48.832;9.126;2024-02-26T12:02:55;96491.13;;;16.95;56.52
19108;BME280;9686;48.832;9.126;2024-02-26T12:05:24;96488.44;;;17.25;53.37
19108;BME280;9686;48.832;9.126;2024-02-26T12:07:56;96497.94;;;17.42;51.85
19108;BME280;9686;48.832;9.126;2024-02-26T12:12:58;96494.09;;;17.47;47.93
19108;BME280;9686;48.832;9.126;2024-02-26T12:15:24;96496.72;;;16.89;49.00
19108;BME280;9686;48.832;9.126;2024-02-26T12:17:51;96506.09;;;16.63;51.75
19108;BME280;9686;48.832;9.126;2024-02-26T12:20:17;96507.94;;;16.31;52.51
19108;BME280;9686;48.832;9.126;2024-02-26T12:22:45;96513.34;;;16.12;54.00
19108;BME280;9686;48.832;9.126;2024-02-26T12:25:14;96516.00;;;16.12;53.99
19108;BME280;9686;48.832;9.126;2024-02-26T12:27:39;96514.91;;;16.16;52.34
19108;BME280;9686;48.832;9.126;2024-02-26T12:30:05;96520.84;;;15.88;54.32
19108;BME280;9686;48.832;9.126;2024-02-26T12:32:31;96524.69;;;15.65;54.91
19108;BME280;9686;48.832;9.126;2024-02-26T12:34:57;96521.81;;;15.70;52.15
19108;BME280;9686;48.832;9.126;2024-02-26T12:37:22;96514.28;;;15.64;53.79
19108;BME280;9686;48.832;9.126;2024-02-26T12:39:47;96507.31;;;15.63;52.84
19108;BME280;9686;48.832;9.126;2024-02-26T12:42:14;96515.63;;;15.71;54.32
19108;BME280;9686;48.832;9.126;2024-02-26T12:44:39;96511.31;;;15.70;55.00
19108;BME280;9686;48.832;9.126;2024-02-26T12:47:04;96516.16;;;15.78;54.49
19108;BME280;9686;48.832;9.126;2024-02-26T12:49:30;96518.13;;;15.90;55.20
19108;BME280;9686;48.832;9.126;2024-02-26T12:51:56;96516.47;;;15.87;55.33
19108;BME280;9686;48.832;9.126;2024-02-26T12:54:29;96528.59;;;15.74;54.82
19108;BME280;9686;48.832;9.126;2024-02-26T12:56:57;96523.09;;;15.79;55.91
19108;BME280;9686;48.832;9.126;2024-02-26T12:59:23;96528.72;;;15.88;55.07
19108;BME280;9686;48.832;9.126;2024-02-26T13:01:48;96528.16;;;15.66;55.44
19108;BME280;9686;48.832;9.126;2024-02-26T13:04:14;96528.19;;;15.82;55.20
19108;BME280;9686;48.832;9.126;2024-02-26T13:06:40;96525.97;;;15.74;56.27
19108;BME280;9686;48.832;9.126;2024-02-26T13:09:05;96528.97;;;15.99;56.89